sensor_id;sensor_type;location;lat;lon;timestamp;P1;durP1;ratioP1;P2;durP2;ratioP2
35648;SDS011;21768;48.562;13.414;2023-07-31T00:02:15;3.28;;;1.67;;
35648;SDS011;21768;48.562;13.414;2023-07-31T00:04:41;3.50;;;1.80;;
35648;SDS011;21768;48.562;13.414;2023-07-31T00:07:06;3.58;;;1.38;;
35648;SDS011;21768;48.562;13.414;2023-07-31T00:09:32;3.13;;;1.65;;
35648;SDS011;21768;48.562;13.414;2023-07-31T00:11:58;2.47;;;1.35;;
35648;SDS011;21768;48.562;13.414;2023-07-31T00:14:23;3.78;;;1.83;;
35648;SDS011;21768;48.562;13.414;2023-07-31T00:16:49;5.07;;;1.98;;
35648;SDS011;21768;48.562;13.414;2023-07-31T00:19:14;4.60;;;1.63;;
35648;SDS011;21768;48.562;13.414;2023-07-31T00:21:40;2.85;;;1.63;;
35648;SDS011;21768;48.562;13.414;2023-07-31T00:24:05;4.22;;;1.70;;
35648;SDS011;21768;48.562;13.414;2023-07-31T00:26:31;5.97;;;1.83;;
35648;SDS011;21768;48.562;13.414;2023-07-31T00:28:56;9.95;;;1.90;;
35648;SDS011;21768;48.562;13.414;2023-07-31T00:31:21;4.35;;;1.48;;
35648;SDS011;21768;48.562;13.414;2023-07-31T00:33:47;5.47;;;1.67;;
35648;SDS011;21768;48.562;13.414;2023-07-31T00:36:12;5.25;;;1.70;;
35648;SDS011;21768;48.562;13.414;2023-07-31T00:38:37;7.50;;;2.03;;
35648;SDS011;21768;48.562;13.414;2023-07-31T00:41:03;3.80;;;1.70;;
35648;SDS011;21768;48.562;13.414;2023-07-31T00:43:28;5.05;;;1.85;;
35648;SDS011;21768;48.562;13.414;2023-07-31T00:45:54;4.28;;;1.70;;
35648;SDS011;21768;48.562;13.414;2023-07-31T00:48:19;4.53;;;1.80;;
35648;SDS011;21768;48.562;13.414;2023-07-31T00:50:44;3.47;;;1.48;;
35648;SDS011;21768;48.562;13.414;2023-07-31T00:53:10;3.30;;;1.65;;
35648;SDS011;21768;48.562;13.414;2023-07-31T00:55:36;6.50;;;1.70;;
35648;SDS011;21768;48.562;13.414;2023-07-31T00:58:01;4.47;;;1.77;;
35648;SDS011;21768;48.562;13.414;2023-07-31T01:00:26;6.03;;;1.52;;
35648;SDS011;21768;48.562;13.414;2023-07-31T01:02:52;5.07;;;2.00;;
35648;SDS011;21768;48.562;13.414;2023-07-31T01:05:24;5.03;;;1.73;;
35648;SDS011;21768;48.562;13.414;2023-07-31T01:08:22;6.57;;;2.17;;
35648;SDS011;21768;48.562;13.414;2023-07-31T01:11:12;3.75;;;1.67;;
35648;SDS011;21768;48.562;13.414;2023-07-31T01:13:42;4.55;;;1.90;;
35648;SDS011;21768;48.562;13.414;2023-07-31T01:16:09;4.40;;;1.80;;
35648;SDS011;21768;48.562;13.414;2023-07-31T01:18:34;4.85;;;1.75;;
35648;SDS011;21768;48.562;13.414;2023-07-31T01:21:06;9.85;;;1.85;;
35648;SDS011;21768;48.562;13.414;2023-07-31T01:26:36;8.02;;;1.90;;
35648;SDS011;21768;48.562;13.414;2023-07-31T01:29:14;10.15;;;1.80;;
35648;SDS011;21768;48.562;13.414;2023-07-31T01:31:46;7.57;;;1.73;;
35648;SDS011;21768;48.562;13.414;2023-07-31T01:34:14;5.35;;;1.90;;
35648;SDS011;21768;48.562;13.414;2023-07-31T01:36:42;6.80;;;2.00;;
35648;SDS011;21768;48.562;13.414;2023-07-31T01:39:09;13.32;;;1.83;;
35648;SDS011;21768;48.562;13.414;2023-07-31T01:41:34;6.00;;;1.73;;
35648;SDS011;21768;48.562;13.414;2023-07-31T01:43:59;4.88;;;1.77;;
35648;SDS011;21768;48.562;13.414;2023-07-31T01:46:25;9.50;;;1.80;;
35648;SDS011;21768;48.562;13.414;2023-07-31T01:48:50;7.40;;;2.03;;
35648;SDS011;21768;48.562;13.414;2023-07-31T01:51:16;5.60;;;1.73;;
35648;SDS011;21768;48.562;13.414;2023-07-31T01:53:41;10.85;;;1.95;;
35648;SDS011;21768;48.562;13.414;2023-07-31T01:56:06;4.68;;;1.75;;
35648;SDS011;21768;48.562;13.414;2023-07-31T01:58:32;5.57;;;1.92;;
35648;SDS011;21768;48.562;13.414;2023-07-31T02:00:57;5.00;;;1.85;;
35648;SDS011;21768;48.562;13.414;2023-07-31T02:03:22;4.95;;;1.75;;
35648;SDS011;21768;48.562;13.414;2023-07-31T02:05:48;5.78;;;1.77;;
35648;SDS011;21768;48.562;13.414;2023-07-31T02:08:14;4.93;;;2.33;;
35648;SDS011;21768;48.562;13.414;2023-07-31T02:10:40;7.38;;;1.73;;
35648;SDS011;21768;48.562;13.414;2023-07-31T02:13:06;5.15;;;2.10;;
35648;SDS011;21768;48.562;13.414;2023-07-31T02:15:31;8.10;;;2.10;;
35648;SDS011;21768;48.562;13.414;2023-07-31T02:17:57;7.43;;;2.20;;
35648;SDS011;21768;48.562;13.414;2023-07-31T02:20:22;6.72;;;1.85;;
35648;SDS011;21768;48.562;13.414;2023-07-31T02:22:48;4.13;;;1.85;;
35648;SDS011;21768;48.562;13.414;2023-07-31T02:25:13;3.35;;;1.80;;
35648;SDS011;21768;48.562;13.414;2023-07-31T02:27:39;5.88;;;1.98;;
35648;SDS011;21768;48.562;13.414;2023-07-31T02:30:04;5.53;;;1.77;;
35648;SDS011;21768;48.562;13.414;2023-07-31T02:32:30;6.40;;;1.98;;
35648;SDS011;21768;48.562;13.414;2023-07-31T02:34:56;7.03;;;2.10;;
35648;SDS011;21768;48.562;13.414;2023-07-31T02:37:21;5.70;;;2.22;;
35648;SDS011;21768;48.562;13.414;2023-07-31T02:39:48;5.25;;;1.75;;
35648;SDS011;21768;48.562;13.414;2023-07-31T02:42:14;4.03;;;1.55;;
35648;SDS011;21768;48.562;13.414;2023-07-31T02:44:39;4.55;;;1.60;;
35648;SDS011;21768;48.562;13.414;2023-07-31T02:47:05;4.72;;;2.08;;
35648;SDS011;21768;48.562;13.414;2023-07-31T02:49:30;6.88;;;1.92;;
35648;SDS011;21768;48.562;13.414;2023-07-31T02:51:56;4.60;;;2.00;;
35648;SDS011;21768;48.562;13.414;2023-07-31T02:54:21;6.90;;;1.92;;
35648;SDS011;21768;48.562;13.414;2023-07-31T02:56:47;3.85;;;2.00;;
35648;SDS011;21768;48.562;13.414;2023-07-31T02:59:13;3.60;;;1.80;;
35648;SDS011;21768;48.562;13.414;2023-07-31T03:01:38;4.65;;;1.75;;
35648;SDS011;21768;48.562;13.414;2023-07-31T03:04:04;3.05;;;1.70;;
35648;SDS011;21768;48.562;13.414;2023-07-31T03:06:29;6.18;;;2.33;;
35648;SDS011;21768;48.562;13.414;2023-07-31T03:08:55;7.45;;;2.10;;
35648;SDS011;21768;48.562;13.414;2023-07-31T03:11:20;6.40;;;1.80;;
35648;SDS011;21768;48.562;13.414;2023-07-31T03:13:45;5.35;;;1.83;;
35648;SDS011;21768;48.562;13.414;2023-07-31T03:16:11;7.07;;;1.92;;
35648;SDS011;21768;48.562;13.414;2023-07-31T03:18:36;8.93;;;2.17;;
35648;SDS011;21768;48.562;13.414;2023-07-31T03:21:01;4.78;;;1.65;;
35648;SDS011;21768;48.562;13.414;2023-07-31T03:23:27;3.25;;;2.00;;
35648;SDS011;21768;48.562;13.414;2023-07-31T03:25:56;7.05;;;2.30;;
35648;SDS011;21768;48.562;13.414;2023-07-31T03:28:25;5.95;;;2.05;;
35648;SDS011;21768;48.562;13.414;2023-07-31T03:30:51;9.73;;;1.92;;
35648;SDS011;21768;48.562;13.414;2023-07-31T03:33:17;4.22;;;1.80;;
35648;SDS011;21768;48.562;13.414;2023-07-31T03:35:42;14.18;;;2.10;;
35648;SDS011;21768;48.562;13.414;2023-07-31T03:38:08;10.88;;;4.85;;
35648;SDS011;21768;48.562;13.414;2023-07-31T03:40:33;9.10;;;3.63;;
35648;SDS011;21768;48.562;13.414;2023-07-31T03:42:59;6.35;;;3.40;;
35648;SDS011;21768;48.562;13.414;2023-07-31T03:45:24;3.38;;;2.00;;
35648;SDS011;21768;48.562;13.414;2023-07-31T03:47:50;6.47;;;2.53;;
35648;SDS011;21768;48.562;13.414;2023-07-31T03:50:15;15.52;;;2.58;;
35648;SDS011;21768;48.562;13.414;2023-07-31T03:52:41;4.32;;;1.92;;
35648;SDS011;21768;48.562;13.414;2023-07-31T03:55:06;4.25;;;2.47;;
35648;SDS011;21768;48.562;13.414;2023-07-31T03:57:32;7.63;;;3.00;;
35648;SDS011;21768;48.562;13.414;2023-07-31T03:59:58;4.95;;;2.28;;
35648;SDS011;21768;48.562;13.414;2023-07-31T04:02:23;7.25;;;1.70;;
35648;SDS011;21768;48.562;13.414;2023-07-31T04:04:49;5.40;;;1.90;;
35648;SDS011;21768;48.562;13.414;2023-07-31T04:07:14;7.07;;;2.25;;
35648;SDS011;21768;48.562;13.414;2023-07-31T04:09:39;5.82;;;1.90;;
35648;SDS011;21768;48.562;13.414;2023-07-31T04:12:05;5.43;;;1.90;;
35648;SDS011;21768;48.562;13.414;2023-07-31T04:14:30;5.28;;;2.13;;
35648;SDS011;21768;48.562;13.414;2023-07-31T04:16:56;8.85;;;2.20;;
35648;SDS011;21768;48.562;13.414;2023-07-31T04:19:21;13.63;;;2.03;;
35648;SDS011;21768;48.562;13.414;2023-07-31T04:21:46;5.22;;;2.17;;
35648;SDS011;21768;48.562;13.414;2023-07-31T04:24:12;6.05;;;2.08;;
35648;SDS011;21768;48.562;13.414;2023-07-31T04:26:37;8.48;;;2.40;;
35648;SDS011;21768;48.562;13.414;2023-07-31T04:29:02;5.50;;;2.00;;
35648;SDS011;21768;48.562;13.414;2023-07-31T04:31:28;4.95;;;2.20;;
35648;SDS011;21768;48.562;13.414;2023-07-31T04:33:53;6.97;;;2.20;;
35648;SDS011;21768;48.562;13.414;2023-07-31T04:36:18;5.63;;;2.30;;
35648;SDS011;21768;48.562;13.414;2023-07-31T04:38:44;5.78;;;2.00;;
35648;SDS011;21768;48.562;13.414;2023-07-31T04:41:09;7.97;;;2.47;;
35648;SDS011;21768;48.562;13.414;2023-07-31T04:43:34;5.22;;;2.00;;
35648;SDS011;21768;48.562;13.414;2023-07-31T04:46:00;8.40;;;2.33;;
35648;SDS011;21768;48.562;13.414;2023-07-31T04:48:25;4.03;;;2.10;;
35648;SDS011;21768;48.562;13.414;2023-07-31T04:50:51;6.68;;;2.10;;
35648;SDS011;21768;48.562;13.414;2023-07-31T04:53:16;6.80;;;2.08;;
35648;SDS011;21768;48.562;13.414;2023-07-31T04:55:41;9.55;;;2.40;;
35648;SDS011;21768;48.562;13.414;2023-07-31T04:58:07;6.75;;;2.22;;
35648;SDS011;21768;48.562;13.414;2023-07-31T05:00:32;6.60;;;2.40;;
35648;SDS011;21768;48.562;13.414;2023-07-31T05:02:58;8.38;;;2.42;;
35648;SDS011;21768;48.562;13.414;2023-07-31T05:05:23;6.57;;;2.22;;
35648;SDS011;21768;48.562;13.414;2023-07-31T05:07:49;5.72;;;2.78;;
35648;SDS011;21768;48.562;13.414;2023-07-31T05:10:14;7.65;;;2.40;;
35648;SDS011;21768;48.562;13.414;2023-07-31T05:12:39;8.85;;;2.25;;
35648;SDS011;21768;48.562;13.414;2023-07-31T05:15:05;5.78;;;2.20;;
35648;SDS011;21768;48.562;13.414;2023-07-31T05:17:31;7.60;;;2.10;;
35648;SDS011;21768;48.562;13.414;2023-07-31T05:19:56;5.22;;;1.65;;
35648;SDS011;21768;48.562;13.414;2023-07-31T05:22:21;8.23;;;2.13;;
35648;SDS011;21768;48.562;13.414;2023-07-31T05:24:47;6.18;;;2.00;;
35648;SDS011;21768;48.562;13.414;2023-07-31T05:27:12;2.70;;;1.73;;
35648;SDS011;21768;48.562;13.414;2023-07-31T05:29:40;9.23;;;1.92;;
35648;SDS011;21768;48.562;13.414;2023-07-31T05:32:05;4.95;;;2.17;;
35648;SDS011;21768;48.562;13.414;2023-07-31T05:34:31;4.35;;;2.17;;
35648;SDS011;21768;48.562;13.414;2023-07-31T05:36:56;6.60;;;2.25;;
35648;SDS011;21768;48.562;13.414;2023-07-31T05:39:22;6.07;;;2.20;;
35648;SDS011;21768;48.562;13.414;2023-07-31T05:41:47;9.63;;;2.40;;
35648;SDS011;21768;48.562;13.414;2023-07-31T05:44:13;7.13;;;2.30;;
35648;SDS011;21768;48.562;13.414;2023-07-31T05:46:38;6.53;;;2.60;;
35648;SDS011;21768;48.562;13.414;2023-07-31T05:49:03;9.35;;;2.67;;
35648;SDS011;21768;48.562;13.414;2023-07-31T05:51:29;5.78;;;1.98;;
35648;SDS011;21768;48.562;13.414;2023-07-31T05:53:54;4.93;;;2.15;;
35648;SDS011;21768;48.562;13.414;2023-07-31T05:56:20;7.22;;;3.10;;
35648;SDS011;21768;48.562;13.414;2023-07-31T05:58:45;6.20;;;2.67;;
35648;SDS011;21768;48.562;13.414;2023-07-31T06:01:10;6.43;;;2.25;;
35648;SDS011;21768;48.562;13.414;2023-07-31T06:03:36;7.47;;;2.15;;
35648;SDS011;21768;48.562;13.414;2023-07-31T06:06:01;3.20;;;1.90;;
35648;SDS011;21768;48.562;13.414;2023-07-31T06:08:27;6.28;;;2.15;;
35648;SDS011;21768;48.562;13.414;2023-07-31T06:10:52;6.40;;;1.88;;
35648;SDS011;21768;48.562;13.414;2023-07-31T06:13:17;7.82;;;2.20;;
35648;SDS011;21768;48.562;13.414;2023-07-31T06:15:43;10.05;;;2.13;;
35648;SDS011;21768;48.562;13.414;2023-07-31T06:18:08;7.70;;;2.10;;
35648;SDS011;21768;48.562;13.414;2023-07-31T06:20:34;5.55;;;1.63;;
35648;SDS011;21768;48.562;13.414;2023-07-31T06:22:59;5.35;;;1.88;;
35648;SDS011;21768;48.562;13.414;2023-07-31T06:25:25;10.52;;;2.20;;
35648;SDS011;21768;48.562;13.414;2023-07-31T06:27:50;6.82;;;1.55;;
35648;SDS011;21768;48.562;13.414;2023-07-31T06:30:16;3.40;;;1.50;;
35648;SDS011;21768;48.562;13.414;2023-07-31T06:32:41;4.93;;;1.63;;
35648;SDS011;21768;48.562;13.414;2023-07-31T06:35:07;5.07;;;1.55;;
35648;SDS011;21768;48.562;13.414;2023-07-31T06:37:33;7.68;;;1.42;;
35648;SDS011;21768;48.562;13.414;2023-07-31T06:39:58;3.67;;;1.40;;
35648;SDS011;21768;48.562;13.414;2023-07-31T06:42:24;6.35;;;1.40;;
35648;SDS011;21768;48.562;13.414;2023-07-31T06:44:49;5.90;;;1.48;;
35648;SDS011;21768;48.562;13.414;2023-07-31T06:47:15;7.95;;;1.10;;
35648;SDS011;21768;48.562;13.414;2023-07-31T06:49:40;3.47;;;1.40;;
35648;SDS011;21768;48.562;13.414;2023-07-31T06:52:05;3.83;;;1.50;;
35648;SDS011;21768;48.562;13.414;2023-07-31T06:54:31;12.57;;;1.65;;
35648;SDS011;21768;48.562;13.414;2023-07-31T06:56:56;5.88;;;1.55;;
35648;SDS011;21768;48.562;13.414;2023-07-31T06:59:22;4.53;;;1.48;;
35648;SDS011;21768;48.562;13.414;2023-07-31T07:01:47;3.10;;;1.50;;
35648;SDS011;21768;48.562;13.414;2023-07-31T07:04:13;10.05;;;1.63;;
35648;SDS011;21768;48.562;13.414;2023-07-31T07:06:39;2.78;;;1.30;;
35648;SDS011;21768;48.562;13.414;2023-07-31T07:09:04;3.85;;;1.45;;
35648;SDS011;21768;48.562;13.414;2023-07-31T07:11:30;6.38;;;1.33;;
35648;SDS011;21768;48.562;13.414;2023-07-31T07:13:56;7.22;;;1.50;;
35648;SDS011;21768;48.562;13.414;2023-07-31T07:16:21;6.28;;;1.27;;
35648;SDS011;21768;48.562;13.414;2023-07-31T07:18:46;6.03;;;1.65;;
35648;SDS011;21768;48.562;13.414;2023-07-31T07:21:12;5.93;;;1.50;;
35648;SDS011;21768;48.562;13.414;2023-07-31T07:23:41;6.40;;;1.60;;
35648;SDS011;21768;48.562;13.414;2023-07-31T07:26:07;5.15;;;1.38;;
35648;SDS011;21768;48.562;13.414;2023-07-31T07:28:32;9.07;;;1.50;;
35648;SDS011;21768;48.562;13.414;2023-07-31T07:30:58;4.90;;;1.50;;
35648;SDS011;21768;48.562;13.414;2023-07-31T07:33:23;5.70;;;1.50;;
35648;SDS011;21768;48.562;13.414;2023-07-31T07:35:49;3.95;;;1.30;;
35648;SDS011;21768;48.562;13.414;2023-07-31T07:38:14;4.35;;;1.45;;
35648;SDS011;21768;48.562;13.414;2023-07-31T07:40:40;3.00;;;1.38;;
35648;SDS011;21768;48.562;13.414;2023-07-31T07:43:05;2.90;;;1.13;;
35648;SDS011;21768;48.562;13.414;2023-07-31T07:45:31;7.13;;;1.88;;
35648;SDS011;21768;48.562;13.414;2023-07-31T07:47:57;4.20;;;1.80;;
35648;SDS011;21768;48.562;13.414;2023-07-31T07:50:23;5.20;;;1.70;;
35648;SDS011;21768;48.562;13.414;2023-07-31T07:52:48;6.80;;;1.55;;
35648;SDS011;21768;48.562;13.414;2023-07-31T07:55:13;6.03;;;2.00;;
35648;SDS011;21768;48.562;13.414;2023-07-31T07:57:39;6.50;;;1.70;;
35648;SDS011;21768;48.562;13.414;2023-07-31T08:00:04;4.38;;;1.58;;
35648;SDS011;21768;48.562;13.414;2023-07-31T08:02:30;10.48;;;2.03;;
35648;SDS011;21768;48.562;13.414;2023-07-31T08:04:56;3.83;;;1.60;;
35648;SDS011;21768;48.562;13.414;2023-07-31T08:07:21;7.05;;;1.90;;
35648;SDS011;21768;48.562;13.414;2023-07-31T08:09:46;6.10;;;2.03;;
35648;SDS011;21768;48.562;13.414;2023-07-31T08:12:12;9.40;;;1.73;;
35648;SDS011;21768;48.562;13.414;2023-07-31T08:14:37;8.80;;;1.55;;
35648;SDS011;21768;48.562;13.414;2023-07-31T08:17:03;7.30;;;2.10;;
35648;SDS011;21768;48.562;13.414;2023-07-31T08:19:28;6.63;;;1.63;;
35648;SDS011;21768;48.562;13.414;2023-07-31T08:21:54;8.45;;;1.77;;
35648;SDS011;21768;48.562;13.414;2023-07-31T08:24:19;5.20;;;1.70;;
35648;SDS011;21768;48.562;13.414;2023-07-31T08:26:45;4.70;;;1.58;;
35648;SDS011;21768;48.562;13.414;2023-07-31T08:29:10;6.55;;;1.40;;
35648;SDS011;21768;48.562;13.414;2023-07-31T08:31:36;4.35;;;1.60;;
35648;SDS011;21768;48.562;13.414;2023-07-31T08:34:01;6.18;;;2.22;;
35648;SDS011;21768;48.562;13.414;2023-07-31T08:36:26;3.90;;;1.60;;
35648;SDS011;21768;48.562;13.414;2023-07-31T08:38:52;3.90;;;1.70;;
35648;SDS011;21768;48.562;13.414;2023-07-31T08:41:17;6.70;;;1.55;;
35648;SDS011;21768;48.562;13.414;2023-07-31T08:43:43;7.07;;;1.60;;
35648;SDS011;21768;48.562;13.414;2023-07-31T08:46:12;6.53;;;1.90;;
35648;SDS011;21768;48.562;13.414;2023-07-31T08:48:40;7.53;;;1.60;;
35648;SDS011;21768;48.562;13.414;2023-07-31T08:51:06;3.08;;;1.60;;
35648;SDS011;21768;48.562;13.414;2023-07-31T08:53:32;5.05;;;1.67;;
35648;SDS011;21768;48.562;13.414;2023-07-31T08:55:57;6.57;;;1.48;;
35648;SDS011;21768;48.562;13.414;2023-07-31T08:58:24;7.43;;;1.90;;
35648;SDS011;21768;48.562;13.414;2023-07-31T09:00:52;3.50;;;1.60;;
35648;SDS011;21768;48.562;13.414;2023-07-31T09:03:19;4.32;;;1.52;;
35648;SDS011;21768;48.562;13.414;2023-07-31T09:05:48;7.78;;;1.67;;
35648;SDS011;21768;48.562;13.414;2023-07-31T09:08:16;7.60;;;1.63;;
35648;SDS011;21768;48.562;13.414;2023-07-31T09:10:45;5.13;;;1.55;;
35648;SDS011;21768;48.562;13.414;2023-07-31T09:13:11;4.78;;;1.70;;
35648;SDS011;21768;48.562;13.414;2023-07-31T09:15:37;3.17;;;1.30;;
35648;SDS011;21768;48.562;13.414;2023-07-31T09:18:05;2.78;;;1.13;;
35648;SDS011;21768;48.562;13.414;2023-07-31T09:20:31;4.80;;;1.38;;
35648;SDS011;21768;48.562;13.414;2023-07-31T09:23:02;4.95;;;1.98;;
35648;SDS011;21768;48.562;13.414;2023-07-31T09:25:34;3.97;;;1.30;;
35648;SDS011;21768;48.562;13.414;2023-07-31T09:28:03;3.40;;;1.30;;
35648;SDS011;21768;48.562;13.414;2023-07-31T09:30:30;3.17;;;1.27;;
35648;SDS011;21768;48.562;13.414;2023-07-31T09:33:03;5.10;;;1.30;;
35648;SDS011;21768;48.562;13.414;2023-07-31T09:35:31;6.97;;;1.70;;
35648;SDS011;21768;48.562;13.414;2023-07-31T09:38:07;3.33;;;1.42;;
35648;SDS011;21768;48.562;13.414;2023-07-31T09:40:35;4.20;;;1.60;;
35648;SDS011;21768;48.562;13.414;2023-07-31T09:43:02;8.38;;;1.67;;
35648;SDS011;21768;48.562;13.414;2023-07-31T09:45:29;3.70;;;1.25;;
35648;SDS011;21768;48.562;13.414;2023-07-31T09:47:59;8.23;;;1.33;;
35648;SDS011;21768;48.562;13.414;2023-07-31T09:50:25;3.83;;;1.58;;
35648;SDS011;21768;48.562;13.414;2023-07-31T09:52:51;7.13;;;1.40;;
35648;SDS011;21768;48.562;13.414;2023-07-31T09:55:18;5.05;;;1.42;;
35648;SDS011;21768;48.562;13.414;2023-07-31T09:57:45;1.92;;;1.23;;
35648;SDS011;21768;48.562;13.414;2023-07-31T10:00:13;2.85;;;1.30;;
35648;SDS011;21768;48.562;13.414;2023-07-31T10:02:40;9.18;;;1.70;;
35648;SDS011;21768;48.562;13.414;2023-07-31T10:05:06;5.43;;;1.70;;
35648;SDS011;21768;48.562;13.414;2023-07-31T10:07:38;3.22;;;1.35;;
35648;SDS011;21768;48.562;13.414;2023-07-31T10:10:07;5.88;;;1.38;;
35648;SDS011;21768;48.562;13.414;2023-07-31T10:12:34;3.75;;;1.30;;
35648;SDS011;21768;48.562;13.414;2023-07-31T10:15:01;3.05;;;1.60;;
35648;SDS011;21768;48.562;13.414;2023-07-31T10:17:26;2.95;;;1.30;;
35648;SDS011;21768;48.562;13.414;2023-07-31T10:19:54;4.07;;;1.60;;
35648;SDS011;21768;48.562;13.414;2023-07-31T10:22:21;6.53;;;1.88;;
35648;SDS011;21768;48.562;13.414;2023-07-31T10:24:46;3.00;;;1.13;;
35648;SDS011;21768;48.562;13.414;2023-07-31T10:27:14;3.10;;;1.40;;
35648;SDS011;21768;48.562;13.414;2023-07-31T10:29:39;5.18;;;1.65;;
35648;SDS011;21768;48.562;13.414;2023-07-31T10:32:08;3.60;;;1.70;;
35648;SDS011;21768;48.562;13.414;2023-07-31T10:34:35;2.20;;;1.30;;
35648;SDS011;21768;48.562;13.414;2023-07-31T10:47:49;4.82;;;1.67;;
35648;SDS011;21768;48.562;13.414;2023-07-31T10:50:24;7.63;;;1.42;;
35648;SDS011;21768;48.562;13.414;2023-07-31T10:52:54;4.10;;;1.80;;
35648;SDS011;21768;48.562;13.414;2023-07-31T10:55:24;7.32;;;1.88;;
35648;SDS011;21768;48.562;13.414;2023-07-31T10:57:54;3.35;;;1.60;;
35648;SDS011;21768;48.562;13.414;2023-07-31T11:00:22;7.28;;;2.17;;
35648;SDS011;21768;48.562;13.414;2023-07-31T11:05:40;4.82;;;1.88;;
35648;SDS011;21768;48.562;13.414;2023-07-31T11:11:07;4.55;;;2.05;;
35648;SDS011;21768;48.562;13.414;2023-07-31T11:13:39;2.88;;;1.33;;
35648;SDS011;21768;48.562;13.414;2023-07-31T11:16:06;3.85;;;1.60;;
35648;SDS011;21768;48.562;13.414;2023-07-31T11:18:32;5.95;;;2.03;;
35648;SDS011;21768;48.562;13.414;2023-07-31T11:20:57;7.30;;;1.60;;
35648;SDS011;21768;48.562;13.414;2023-07-31T11:23:23;6.35;;;1.80;;
35648;SDS011;21768;48.562;13.414;2023-07-31T11:25:49;4.00;;;1.67;;
35648;SDS011;21768;48.562;13.414;2023-07-31T11:28:16;6.38;;;1.60;;
35648;SDS011;21768;48.562;13.414;2023-07-31T11:30:42;6.20;;;1.67;;
35648;SDS011;21768;48.562;13.414;2023-07-31T11:33:12;5.80;;;1.75;;
35648;SDS011;21768;48.562;13.414;2023-07-31T11:35:45;5.03;;;1.77;;
35648;SDS011;21768;48.562;13.414;2023-07-31T11:38:21;3.70;;;1.60;;
35648;SDS011;21768;48.562;13.414;2023-07-31T11:40:50;4.78;;;1.98;;
35648;SDS011;21768;48.562;13.414;2023-07-31T11:43:17;6.18;;;1.60;;
35648;SDS011;21768;48.562;13.414;2023-07-31T11:45:46;5.88;;;1.70;;
35648;SDS011;21768;48.562;13.414;2023-07-31T11:48:22;5.47;;;1.63;;
35648;SDS011;21768;48.562;13.414;2023-07-31T11:50:49;4.75;;;2.28;;
35648;SDS011;21768;48.562;13.414;2023-07-31T11:53:16;6.30;;;2.00;;
35648;SDS011;21768;48.562;13.414;2023-07-31T11:55:44;4.22;;;1.90;;
35648;SDS011;21768;48.562;13.414;2023-07-31T11:58:10;6.25;;;2.00;;
35648;SDS011;21768;48.562;13.414;2023-07-31T12:00:36;5.20;;;2.00;;
35648;SDS011;21768;48.562;13.414;2023-07-31T12:03:02;7.15;;;2.20;;
35648;SDS011;21768;48.562;13.414;2023-07-31T12:05:28;4.15;;;1.92;;
35648;SDS011;21768;48.562;13.414;2023-07-31T12:07:54;8.25;;;1.50;;
35648;SDS011;21768;48.562;13.414;2023-07-31T12:12:56;3.15;;;1.70;;
35648;SDS011;21768;48.562;13.414;2023-07-31T12:15:45;3.50;;;1.63;;
35648;SDS011;21768;48.562;13.414;2023-07-31T12:20:40;4.32;;;1.75;;
35648;SDS011;21768;48.562;13.414;2023-07-31T12:23:13;4.80;;;1.83;;
35648;SDS011;21768;48.562;13.414;2023-07-31T12:25:40;4.40;;;1.50;;
35648;SDS011;21768;48.562;13.414;2023-07-31T12:28:06;3.50;;;1.75;;
35648;SDS011;21768;48.562;13.414;2023-07-31T12:30:36;3.72;;;1.63;;
35648;SDS011;21768;48.562;13.414;2023-07-31T12:33:03;2.53;;;1.42;;
35648;SDS011;21768;48.562;13.414;2023-07-31T12:35:37;5.15;;;2.10;;
35648;SDS011;21768;48.562;13.414;2023-07-31T12:38:05;3.10;;;1.50;;
35648;SDS011;21768;48.562;13.414;2023-07-31T12:40:30;6.28;;;1.65;;
35648;SDS011;21768;48.562;13.414;2023-07-31T12:42:56;2.92;;;1.63;;
35648;SDS011;21768;48.562;13.414;2023-07-31T12:45:21;3.60;;;1.67;;
35648;SDS011;21768;48.562;13.414;2023-07-31T12:47:48;3.28;;;1.73;;
35648;SDS011;21768;48.562;13.414;2023-07-31T12:50:13;3.70;;;1.75;;
35648;SDS011;21768;48.562;13.414;2023-07-31T12:52:39;4.20;;;2.10;;
35648;SDS011;21768;48.562;13.414;2023-07-31T12:55:04;3.47;;;1.40;;
35648;SDS011;21768;48.562;13.414;2023-07-31T12:57:30;3.50;;;1.40;;
35648;SDS011;21768;48.562;13.414;2023-07-31T12:59:55;3.42;;;1.60;;
35648;SDS011;21768;48.562;13.414;2023-07-31T13:02:21;3.53;;;1.65;;
35648;SDS011;21768;48.562;13.414;2023-07-31T13:04:46;3.88;;;1.40;;
35648;SDS011;21768;48.562;13.414;2023-07-31T13:07:11;3.60;;;1.63;;
35648;SDS011;21768;48.562;13.414;2023-07-31T13:09:37;4.20;;;2.17;;
35648;SDS011;21768;48.562;13.414;2023-07-31T13:12:02;6.70;;;2.08;;
35648;SDS011;21768;48.562;13.414;2023-07-31T13:14:28;2.78;;;1.58;;
35648;SDS011;21768;48.562;13.414;2023-07-31T13:16:53;5.57;;;1.80;;
35648;SDS011;21768;48.562;13.414;2023-07-31T13:19:19;4.45;;;1.80;;
35648;SDS011;21768;48.562;13.414;2023-07-31T13:21:44;2.72;;;1.75;;
35648;SDS011;21768;48.562;13.414;2023-07-31T13:24:09;4.32;;;1.70;;
35648;SDS011;21768;48.562;13.414;2023-07-31T13:26:36;4.95;;;1.95;;
35648;SDS011;21768;48.562;13.414;2023-07-31T13:29:02;4.00;;;1.70;;
35648;SDS011;21768;48.562;13.414;2023-07-31T13:31:27;3.42;;;1.52;;
35648;SDS011;21768;48.562;13.414;2023-07-31T13:33:53;4.60;;;1.95;;
35648;SDS011;21768;48.562;13.414;2023-07-31T13:36:18;3.03;;;1.65;;
35648;SDS011;21768;48.562;13.414;2023-07-31T13:38:44;3.35;;;1.55;;
35648;SDS011;21768;48.562;13.414;2023-07-31T13:41:09;2.67;;;1.50;;
35648;SDS011;21768;48.562;13.414;2023-07-31T13:43:34;2.58;;;1.50;;
35648;SDS011;21768;48.562;13.414;2023-07-31T13:46:00;3.88;;;1.30;;
35648;SDS011;21768;48.562;13.414;2023-07-31T13:48:31;6.30;;;1.65;;
35648;SDS011;21768;48.562;13.414;2023-07-31T13:50:58;5.45;;;1.70;;
35648;SDS011;21768;48.562;13.414;2023-07-31T13:53:23;5.13;;;1.52;;
35648;SDS011;21768;48.562;13.414;2023-07-31T13:55:48;2.63;;;1.48;;
35648;SDS011;21768;48.562;13.414;2023-07-31T13:58:14;3.30;;;1.70;;
35648;SDS011;21768;48.562;13.414;2023-07-31T14:00:39;2.60;;;1.60;;
35648;SDS011;21768;48.562;13.414;2023-07-31T14:03:05;2.55;;;1.50;;
35648;SDS011;21768;48.562;13.414;2023-07-31T14:05:30;6.47;;;1.70;;
35648;SDS011;21768;48.562;13.414;2023-07-31T14:07:55;3.22;;;1.50;;
35648;SDS011;21768;48.562;13.414;2023-07-31T14:10:22;2.50;;;1.50;;
35648;SDS011;21768;48.562;13.414;2023-07-31T14:12:47;3.85;;;1.98;;
35648;SDS011;21768;48.562;13.414;2023-07-31T14:15:12;3.33;;;1.40;;
35648;SDS011;21768;48.562;13.414;2023-07-31T14:17:38;7.65;;;1.92;;
35648;SDS011;21768;48.562;13.414;2023-07-31T14:20:04;5.60;;;1.67;;
35648;SDS011;21768;48.562;13.414;2023-07-31T14:22:30;3.72;;;1.35;;
35648;SDS011;21768;48.562;13.414;2023-07-31T14:24:55;3.83;;;1.70;;
35648;SDS011;21768;48.562;13.414;2023-07-31T14:27:21;3.17;;;1.50;;
35648;SDS011;21768;48.562;13.414;2023-07-31T14:29:46;3.70;;;1.63;;
35648;SDS011;21768;48.562;13.414;2023-07-31T14:32:12;3.25;;;1.70;;
35648;SDS011;21768;48.562;13.414;2023-07-31T14:34:37;4.00;;;1.50;;
35648;SDS011;21768;48.562;13.414;2023-07-31T14:37:02;5.65;;;1.90;;
35648;SDS011;21768;48.562;13.414;2023-07-31T14:42:24;3.65;;;1.73;;
35648;SDS011;21768;48.562;13.414;2023-07-31T14:44:50;7.28;;;1.88;;
35648;SDS011;21768;48.562;13.414;2023-07-31T14:47:15;2.35;;;1.60;;
35648;SDS011;21768;48.562;13.414;2023-07-31T14:49:40;2.90;;;1.40;;
35648;SDS011;21768;48.562;13.414;2023-07-31T14:52:06;5.75;;;1.48;;
35648;SDS011;21768;48.562;13.414;2023-07-31T14:54:32;4.30;;;2.10;;
35648;SDS011;21768;48.562;13.414;2023-07-31T14:56:57;3.25;;;1.23;;